Time;durP1;ratioP1;P1;durP2;ratioP2;P2;SDS_P1;SDS_P2;PMS_P1;PMS_P2;Temp;Humidity;BMP_temperature;BMP_pressure;BME280_temperature;BME280_humidity;BME280_pressure;Samples;Min_cycle;Max_cycle;Signal;HPM_P1;HPM_P2
2023/05/10 00:00:31;;;;;;;18.88;14.68;;;;;;;;;;6157528;23;20017;-80
2023/05/10 00:02:57;;;;;;;16.85;13.77;;;;;;;;;;6132435;23;20020;-80
2023/05/10 00:05:23;;;;;;;17.13;13.27;;;;;;;;;;6183298;23;20254;-80
2023/05/10 00:07:49;;;;;;;13.82;12.43;;;;;;;;;;6132454;23;20062;-80
2023/05/10 00:10:15;;;;;;;12.90;11.60;;;;;;;;;;6183750;23;20060;-80
2023/05/10 00:12:41;;;;;;;15.55;12.85;;;;;;;;;;6132684;23;20017;-79
2023/05/10 00:15:07;;;;;;;14.13;12.40;;;;;;;;;;6183240;23;20017;-80
2023/05/10 00:17:33;;;;;;;11.93;10.70;;;;;;;;;;6183411;23;20056;-80
2023/05/10 00:20:00;;;;;;;13.65;12.25;;;;;;;;;;6131799;23;20336;-80
2023/05/10 00:22:26;;;;;;;15.80;14.10;;;;;;;;;;6157201;23;20020;-79
2023/05/10 00:24:52;;;;;;;14.73;13.13;;;;;;;;;;6156795;23;20027;-80
2023/05/10 00:27:18;;;;;;;15.88;13.20;;;;;;;;;;6156871;23;20088;-80
2023/05/10 00:29:44;;;;;;;14.77;13.27;;;;;;;;;;6132258;23;20452;-80
2023/05/10 00:32:10;;;;;;;18.23;14.82;;;;;;;;;;6156561;23;20064;-80
2023/05/10 00:34:36;;;;;;;18.52;14.95;;;;;;;;;;6156097;23;20013;-81
2023/05/10 00:37:02;;;;;;;14.70;13.15;;;;;;;;;;6132488;23;20020;-80
2023/05/10 00:39:28;;;;;;;19.10;14.85;;;;;;;;;;6156751;23;20132;-82
2023/05/10 00:41:54;;;;;;;17.63;14.05;;;;;;;;;;6156665;23;20028;-79
2023/05/10 00:44:20;;;;;;;20.58;15.85;;;;;;;;;;6132039;23;20009;-79
2023/05/10 00:46:47;;;;;;;19.27;15.57;;;;;;;;;;6156336;23;20020;-79
2023/05/10 00:49:13;;;;;;;15.80;14.13;;;;;;;;;;6182704;23;20116;-80
2023/05/10 00:51:39;;;;;;;17.05;13.68;;;;;;;;;;6156493;23;20066;-80
2023/05/10 00:54:06;;;;;;;21.17;15.60;;;;;;;;;;6182916;23;20313;-79
2023/05/10 00:56:32;;;;;;;17.00;14.68;;;;;;;;;;6156866;23;20013;-80
2023/05/10 00:58:58;;;;;;;20.17;15.10;;;;;;;;;;6182964;23;20088;-80
2023/05/10 01:01:25;;;;;;;15.38;13.05;;;;;;;;;;6156331;23;20345;-81
2023/05/10 01:03:52;;;;;;;13.20;11.82;;;;;;;;;;6155700;23;20036;-82
2023/05/10 01:06:18;;;;;;;14.13;12.63;;;;;;;;;;6183092;23;20379;-82
2023/05/10 01:08:44;;;;;;;20.63;15.18;;;;;;;;;;6131604;23;20036;-79
2023/05/10 01:11:10;;;;;;;17.42;14.05;;;;;;;;;;6131875;23;20009;-79
2023/05/10 01:13:37;;;;;;;15.90;13.65;;;;;;;;;;6156306;23;20048;-79
2023/05/10 01:16:04;;;;;;;20.33;14.93;;;;;;;;;;6156004;23;20013;-80
2023/05/10 01:18:31;;;;;;;16.50;14.07;;;;;;;;;;6182376;23;20063;-80
2023/05/10 01:21:20;;;;;;;17.15;12.77;;;;;;;;;;6183167;23;20391;-81
2023/05/10 01:24:09;;;;;;;15.13;13.23;;;;;;;;;;6148121;23;20012;-80
2023/05/10 01:26:38;;;;;;;17.25;13.10;;;;;;;;;;6156257;23;20029;-79
2023/05/10 01:29:10;;;;;;;14.40;12.40;;;;;;;;;;6131984;23;20013;-79
2023/05/10 01:31:56;;;;;;;14.65;11.80;;;;;;;;;;6155532;23;20085;-79
2023/05/10 01:34:26;;;;;;;16.13;13.60;;;;;;;;;;6155993;23;20013;-80
2023/05/10 01:36:55;;;;;;;15.70;13.02;;;;;;;;;;6156359;23;20362;-80
2023/05/10 01:39:25;;;;;;;19.73;14.80;;;;;;;;;;6156405;23;20333;-80
2023/05/10 01:42:03;;;;;;;23.42;15.75;;;;;;;;;;6155987;23;20009;-80
2023/05/10 01:44:47;;;;;;;16.17;13.60;;;;;;;;;;6156024;23;20441;-79
2023/05/10 01:47:23;;;;;;;18.77;14.00;;;;;;;;;;6130915;23;20010;-79
2023/05/10 01:49:50;;;;;;;15.95;14.07;;;;;;;;;;6131581;23;20012;-80
2023/05/10 01:52:19;;;;;;;20.42;15.30;;;;;;;;;;6131383;23;20100;-79
2023/05/10 01:54:58;;;;;;;19.02;14.57;;;;;;;;;;6131425;23;20444;-80
2023/05/10 01:57:26;;;;;;;21.45;15.35;;;;;;;;;;6155658;23;20028;-79
2023/05/10 01:59:52;;;;;;;16.25;14.00;;;;;;;;;;6131500;23;20454;-79
2023/05/10 02:02:23;;;;;;;14.73;12.93;;;;;;;;;;6155304;23;20020;-80
2023/05/10 02:04:51;;;;;;;13.65;12.25;;;;;;;;;;6131204;23;20340;-80
2023/05/10 02:07:17;;;;;;;14.18;12.68;;;;;;;;;;6182721;23;20096;-80
2023/05/10 02:09:47;;;;;;;13.45;11.93;;;;;;;;;;6131455;23;20025;-80
2023/05/10 02:12:13;;;;;;;13.50;12.10;;;;;;;;;;6156165;23;20044;-80
2023/05/10 02:14:40;;;;;;;14.18;12.23;;;;;;;;;;6131190;23;20021;-79
2023/05/10 02:17:08;;;;;;;17.27;13.20;;;;;;;;;;6130829;23;20159;-80
2023/05/10 02:19:35;;;;;;;13.55;12.07;;;;;;;;;;6155803;23;20037;-80
2023/05/10 02:22:03;;;;;;;14.25;12.75;;;;;;;;;;6183020;23;20048;-79
2023/05/10 02:24:30;;;;;;;16.27;14.18;;;;;;;;;;6182252;23;20453;-80
2023/05/10 02:26:56;;;;;;;17.20;13.70;;;;;;;;;;6182701;23;20097;-80
2023/05/10 02:29:23;;;;;;;16.42;14.35;;;;;;;;;;6156088;23;20375;-79
2023/05/10 02:31:52;;;;;;;18.88;14.43;;;;;;;;;;6155320;23;20021;-80
2023/05/10 02:34:18;;;;;;;15.93;13.65;;;;;;;;;;6182835;23;20078;-80
2023/05/10 02:36:44;;;;;;;16.10;14.40;;;;;;;;;;6131305;23;20017;-80
2023/05/10 02:39:13;;;;;;;17.92;15.07;;;;;;;;;;6131371;23;20487;-80
2023/05/10 02:41:40;;;;;;;22.52;15.63;;;;;;;;;;6131273;23;20013;-79
2023/05/10 02:44:07;;;;;;;18.05;15.63;;;;;;;;;;6155434;23;20009;-80
2023/05/10 02:46:34;;;;;;;16.58;14.75;;;;;;;;;;6182421;23;20092;-79
2023/05/10 02:49:01;;;;;;;18.75;15.43;;;;;;;;;;6131374;23;20071;-80
2023/05/10 02:51:29;;;;;;;16.77;14.63;;;;;;;;;;6156006;23;20096;-80
2023/05/10 02:53:56;;;;;;;17.33;15.18;;;;;;;;;;6155741;23;20144;-80
2023/05/10 02:56:26;;;;;;;18.38;14.95;;;;;;;;;;6182640;23;20017;-80
2023/05/10 02:58:52;;;;;;;17.98;14.70;;;;;;;;;;6182191;23;20073;-80
2023/05/10 03:01:18;;;;;;;22.30;16.30;;;;;;;;;;6131284;23;20013;-80
2023/05/10 03:03:44;;;;;;;25.52;17.17;;;;;;;;;;6156336;23;20009;-80
2023/05/10 03:06:10;;;;;;;19.95;16.65;;;;;;;;;;6155710;23;20013;-80
2023/05/10 03:08:37;;;;;;;23.52;17.45;;;;;;;;;;6156548;23;20578;-79
2023/05/10 03:11:22;;;;;;;20.45;16.25;;;;;;;;;;6133133;23;20020;-80
2023/05/10 03:14:04;;;;;;;23.10;17.23;;;;;;;;;;6157030;23;20048;-80
2023/05/10 03:16:35;;;;;;;24.87;18.30;;;;;;;;;;6184299;23;20028;-80
2023/05/10 03:19:07;;;;;;;26.70;17.58;;;;;;;;;;6133042;23;20316;-80
2023/05/10 03:21:33;;;;;;;28.17;18.95;;;;;;;;;;6133015;23;20017;-80
2023/05/10 03:24:02;;;;;;;24.70;17.25;;;;;;;;;;6184193;23;20013;-79
2023/05/10 03:26:29;;;;;;;26.30;19.42;;;;;;;;;;6157920;23;20092;-79
2023/05/10 03:28:58;;;;;;;24.73;18.38;;;;;;;;;;6156873;23;20075;-79
2023/05/10 03:31:24;;;;;;;25.42;19.38;;;;;;;;;;6157751;23;20020;-79
2023/05/10 03:33:52;;;;;;;26.02;18.65;;;;;;;;;;6157514;23;20009;-80
2023/05/10 03:36:18;;;;;;;26.98;20.75;;;;;;;;;;6184253;23;20443;-80
2023/05/10 03:38:44;;;;;;;31.77;21.33;;;;;;;;;;6157485;23;20044;-79
2023/05/10 03:41:10;;;;;;;33.08;20.80;;;;;;;;;;6132667;23;20024;-80
2023/05/10 03:43:36;;;;;;;28.65;20.15;;;;;;;;;;6156807;23;20013;-80
2023/05/10 03:46:05;;;;;;;26.85;19.70;;;;;;;;;;6157184;23;20013;-80
2023/05/10 03:48:32;;;;;;;25.52;18.77;;;;;;;;;;6184013;23;20024;-80
2023/05/10 03:50:58;;;;;;;27.17;18.88;;;;;;;;;;6184042;23;20099;-80
2023/05/10 03:53:24;;;;;;;37.67;22.50;;;;;;;;;;6183954;23;20013;-79
2023/05/10 03:55:50;;;;;;;25.85;19.77;;;;;;;;;;6132396;23;20515;-79
2023/05/10 03:58:16;;;;;;;31.05;20.52;;;;;;;;;;6183276;23;20016;-80
2023/05/10 04:00:45;;;;;;;23.45;18.95;;;;;;;;;;6156834;23;20101;-79
2023/05/10 04:03:11;;;;;;;28.05;20.77;;;;;;;;;;6157374;23;20392;-80
2023/05/10 04:05:37;;;;;;;28.83;19.20;;;;;;;;;;6157249;23;20017;-80
2023/05/10 04:08:03;;;;;;;24.92;18.40;;;;;;;;;;6156989;23;20013;-80
2023/05/10 04:10:29;;;;;;;27.17;20.05;;;;;;;;;;6157185;23;20048;-80
2023/05/10 04:12:55;;;;;;;26.08;18.73;;;;;;;;;;6131926;23;20020;-79
2023/05/10 04:15:22;;;;;;;26.52;19.08;;;;;;;;;;6131761;23;20013;-80
2023/05/10 04:17:48;;;;;;;22.02;16.48;;;;;;;;;;6183334;23;20109;-80
2023/05/10 04:20:14;;;;;;;23.50;16.98;;;;;;;;;;6131689;23;20016;-80
2023/05/10 04:22:40;;;;;;;24.50;17.98;;;;;;;;;;6156554;23;20441;-80
2023/05/10 04:25:07;;;;;;;23.42;16.85;;;;;;;;;;6156526;23;20341;-80
2023/05/10 04:27:33;;;;;;;18.38;15.35;;;;;;;;;;6156221;23;20017;-81
2023/05/10 04:29:59;;;;;;;21.52;15.95;;;;;;;;;;6156866;23;20055;-81
2023/05/10 04:32:25;;;;;;;24.65;16.95;;;;;;;;;;6132094;23;20040;-81
2023/05/10 04:34:51;;;;;;;22.17;16.15;;;;;;;;;;6131782;23;20017;-81
2023/05/10 04:37:17;;;;;;;18.35;14.05;;;;;;;;;;6156369;23;20017;-81
2023/05/10 04:39:43;;;;;;;18.35;15.07;;;;;;;;;;6132003;23;20013;-81
2023/05/10 04:42:10;;;;;;;19.10;14.23;;;;;;;;;;6182625;23;20384;-81
2023/05/10 04:44:36;;;;;;;20.27;14.50;;;;;;;;;;6156236;23;20064;-81
2023/05/10 04:47:02;;;;;;;17.35;14.00;;;;;;;;;;6131861;23;20016;-82
2023/05/10 04:49:29;;;;;;;17.98;13.68;;;;;;;;;;6155847;23;20634;-81
2023/05/10 04:51:55;;;;;;;17.70;13.30;;;;;;;;;;6156252;23;20009;-81
2023/05/10 04:54:21;;;;;;;16.55;14.05;;;;;;;;;;6131452;23;20016;-81
2023/05/10 04:56:48;;;;;;;15.27;13.43;;;;;;;;;;6182412;23;20021;-81
2023/05/10 04:59:14;;;;;;;19.17;15.02;;;;;;;;;;6131868;23;20108;-81
2023/05/10 05:01:40;;;;;;;15.00;12.82;;;;;;;;;;6156303;23;20113;-80
2023/05/10 05:04:06;;;;;;;14.73;13.13;;;;;;;;;;6156471;23;20016;-81
2023/05/10 05:06:32;;;;;;;14.60;13.05;;;;;;;;;;6156177;23;20017;-80
2023/05/10 05:08:58;;;;;;;15.25;13.45;;;;;;;;;;6156094;23;20009;-80
2023/05/10 05:11:25;;;;;;;15.63;12.50;;;;;;;;;;6130774;23;20093;-80
2023/05/10 05:13:51;;;;;;;15.02;12.93;;;;;;;;;;6182887;23;20093;-81
2023/05/10 05:16:17;;;;;;;17.10;13.65;;;;;;;;;;6130673;23;20384;-81
2023/05/10 05:18:43;;;;;;;14.13;12.57;;;;;;;;;;6131410;23;20013;-81
2023/05/10 05:21:16;;;;;;;13.70;11.95;;;;;;;;;;6131466;23;20040;-79
2023/05/10 05:23:42;;;;;;;15.13;13.30;;;;;;;;;;6181939;23;20097;-82
2023/05/10 05:26:08;;;;;;;12.02;10.82;;;;;;;;;;6156374;23;20048;-82
2023/05/10 05:28:37;;;;;;;12.80;11.02;;;;;;;;;;6155870;23;20072;-82
2023/05/10 05:31:03;;;;;;;12.20;9.98;;;;;;;;;;6155527;23;20135;-82
2023/05/10 05:33:29;;;;;;;10.98;9.88;;;;;;;;;;6155089;23;20013;-82
2023/05/10 05:35:55;;;;;;;10.20;9.20;;;;;;;;;;6182612;23;20067;-82
2023/05/10 05:38:21;;;;;;;12.30;10.43;;;;;;;;;;6155181;23;20017;-82
2023/05/10 05:40:47;;;;;;;10.55;8.77;;;;;;;;;;6131192;23;20024;-82
2023/05/10 05:43:13;;;;;;;8.60;7.75;;;;;;;;;;6182556;23;20396;-82
2023/05/10 05:45:39;;;;;;;7.65;6.85;;;;;;;;;;6155587;23;20040;-82
2023/05/10 05:48:05;;;;;;;7.95;7.15;;;;;;;;;;6155814;23;20441;-82
2023/05/10 05:50:31;;;;;;;7.07;6.38;;;;;;;;;;6182553;23;20017;-82
2023/05/10 05:52:57;;;;;;;9.52;6.82;;;;;;;;;;6182075;23;20009;-82
2023/05/10 05:55:24;;;;;;;7.75;6.63;;;;;;;;;;6156247;23;20048;-82
2023/05/10 05:57:50;;;;;;;6.03;5.15;;;;;;;;;;6155873;23;20076;-81
2023/05/10 06:00:16;;;;;;;7.10;4.80;;;;;;;;;;6131246;23;20483;-81
2023/05/10 06:02:42;;;;;;;5.40;4.50;;;;;;;;;;6182616;23;20024;-81
2023/05/10 06:05:09;;;;;;;6.47;5.43;;;;;;;;;;6156103;23;20017;-81
2023/05/10 06:07:35;;;;;;;4.70;4.03;;;;;;;;;;6130586;23;20046;-81
2023/05/10 06:10:01;;;;;;;7.43;4.70;;;;;;;;;;6131341;23;20389;-81
2023/05/10 06:12:27;;;;;;;5.10;4.28;;;;;;;;;;6155729;23;20013;-81
2023/05/10 06:14:53;;;;;;;8.65;3.60;;;;;;;;;;6155754;23;20017;-82
2023/05/10 06:17:19;;;;;;;6.00;4.13;;;;;;;;;;6156140;23;20032;-82
2023/05/10 06:19:45;;;;;;;5.20;4.15;;;;;;;;;;6156103;23;20039;-82
2023/05/10 06:22:10;;;;;;;4.53;3.85;;;;;;;;;;6181904;23;20017;-82
2023/05/10 06:24:36;;;;;;;5.00;3.40;;;;;;;;;;6131002;23;20009;-82
2023/05/10 06:27:03;;;;;;;5.15;3.22;;;;;;;;;;6155582;23;20068;-81
2023/05/10 06:29:30;;;;;;;3.88;2.50;;;;;;;;;;6182507;23;20373;-81
2023/05/10 06:31:56;;;;;;;8.02;3.25;;;;;;;;;;6131090;23;20088;-82
2023/05/10 06:34:22;;;;;;;7.53;2.10;;;;;;;;;;6182069;23;20048;-81
2023/05/10 06:36:48;;;;;;;3.60;1.88;;;;;;;;;;6155336;23;20013;-83
2023/05/10 06:39:14;;;;;;;2.15;1.50;;;;;;;;;;6182442;23;20340;-82
2023/05/10 06:41:40;;;;;;;5.15;1.63;;;;;;;;;;6131071;23;20017;-82
2023/05/10 06:44:06;;;;;;;2.28;1.52;;;;;;;;;;6131584;23;20013;-82
2023/05/10 06:46:32;;;;;;;5.55;2.00;;;;;;;;;;6157430;23;20023;-82
2023/05/10 06:48:58;;;;;;;2.25;1.55;;;;;;;;;;6157387;23;20020;-82
2023/05/10 06:51:24;;;;;;;8.48;2.10;;;;;;;;;;6156947;23;20013;-82
2023/05/10 06:53:50;;;;;;;16.27;3.47;;;;;;;;;;6184142;23;20084;-82
2023/05/10 06:56:16;;;;;;;7.38;1.55;;;;;;;;;;6184191;23;20059;-82
2023/05/10 06:58:42;;;;;;;2.72;1.63;;;;;;;;;;6157465;23;20052;-82
2023/05/10 07:01:08;;;;;;;3.63;1.65;;;;;;;;;;6132832;23;20448;-82
2023/05/10 07:03:34;;;;;;;2.88;1.80;;;;;;;;;;6157379;23;20024;-82
2023/05/10 07:06:04;;;;;;;3.20;1.80;;;;;;;;;;6156660;23;20017;-82
2023/05/10 07:08:33;;;;;;;4.53;1.88;;;;;;;;;;6157302;23;20048;-82
2023/05/10 07:11:00;;;;;;;2.95;1.70;;;;;;;;;;6132769;23;20009;-82
2023/05/10 07:13:26;;;;;;;7.22;2.35;;;;;;;;;;6157577;23;20095;-82
2023/05/10 07:15:52;;;;;;;15.45;2.80;;;;;;;;;;6157066;23;20048;-82
2023/05/10 07:18:18;;;;;;;20.48;4.25;;;;;;;;;;6157642;23;20020;-82
2023/05/10 07:20:44;;;;;;;4.22;2.28;;;;;;;;;;6183430;23;20091;-82
2023/05/10 07:23:10;;;;;;;2.22;1.42;;;;;;;;;;6157627;23;20009;-82
2023/05/10 07:25:36;;;;;;;2.63;1.60;;;;;;;;;;6157156;23;20521;-82
2023/05/10 07:28:02;;;;;;;2.05;1.05;;;;;;;;;;6157184;23;20020;-82
2023/05/10 07:30:28;;;;;;;35.10;4.88;;;;;;;;;;6157169;23;20009;-82
2023/05/10 07:32:54;;;;;;;6.13;1.80;;;;;;;;;;6132626;23;20078;-82
2023/05/10 07:35:20;;;;;;;3.47;1.10;;;;;;;;;;6156539;23;20098;-82
2023/05/10 07:37:46;;;;;;;1.75;1.10;;;;;;;;;;6157154;23;20017;-82
2023/05/10 07:40:12;;;;;;;1.92;1.10;;;;;;;;;;6132480;23;20040;-81
2023/05/10 07:42:38;;;;;;;2.28;1.20;;;;;;;;;;6183818;23;20017;-82
2023/05/10 07:45:04;;;;;;;2.33;1.25;;;;;;;;;;6157066;23;20013;-82
2023/05/10 07:47:30;;;;;;;1.70;1.17;;;;;;;;;;6156909;23;20013;-82
2023/05/10 07:49:56;;;;;;;1.92;1.20;;;;;;;;;;6182714;23;20444;-82
2023/05/10 07:52:22;;;;;;;2.22;1.10;;;;;;;;;;6156888;23;20092;-82
2023/05/10 07:54:48;;;;;;;2.25;1.10;;;;;;;;;;6183378;23;20080;-82
2023/05/10 07:57:17;;;;;;;5.50;1.80;;;;;;;;;;6183207;23;20488;-82
2023/05/10 07:59:43;;;;;;;1.90;1.40;;;;;;;;;;6132507;23;20013;-82
2023/05/10 08:02:09;;;;;;;2.70;1.75;;;;;;;;;;6132189;23;20016;-82
2023/05/10 08:04:35;;;;;;;2.50;1.90;;;;;;;;;;6156243;23;20017;-82
2023/05/10 08:07:01;;;;;;;4.30;2.38;;;;;;;;;;6156838;23;20032;-82
2023/05/10 08:09:27;;;;;;;3.70;3.25;;;;;;;;;;6132217;23;20071;-82
2023/05/10 08:11:53;;;;;;;6.28;3.90;;;;;;;;;;6156664;23;20009;-82
2023/05/10 08:14:19;;;;;;;3.80;3.40;;;;;;;;;;6132294;23;20032;-82
2023/05/10 08:16:45;;;;;;;5.03;3.90;;;;;;;;;;6156800;23;20032;-82
2023/05/10 08:19:11;;;;;;;4.18;3.70;;;;;;;;;;6183092;23;20092;-82
2023/05/10 08:21:37;;;;;;;5.55;4.25;;;;;;;;;;6183695;23;20017;-82
2023/05/10 08:24:03;;;;;;;7.22;4.10;;;;;;;;;;6156763;23;20013;-82
2023/05/10 08:26:29;;;;;;;5.05;4.18;;;;;;;;;;6156962;23;20017;-82
2023/05/10 08:28:55;;;;;;;5.20;4.07;;;;;;;;;;6183483;23;20029;-82
2023/05/10 08:31:21;;;;;;;6.07;4.05;;;;;;;;;;6156436;23;20028;-82
2023/05/10 08:33:47;;;;;;;5.18;4.13;;;;;;;;;;6156072;23;20013;-82
2023/05/10 08:36:19;;;;;;;6.22;4.80;;;;;;;;;;6183338;23;20013;-82
2023/05/10 08:38:45;;;;;;;5.25;4.45;;;;;;;;;;6156410;23;20023;-82
2023/05/10 08:41:11;;;;;;;5.05;4.25;;;;;;;;;;6156497;23;20088;-82
2023/05/10 08:43:38;;;;;;;4.90;4.13;;;;;;;;;;6156627;23;20016;-82
2023/05/10 08:46:05;;;;;;;6.63;4.50;;;;;;;;;;6131670;23;20475;-82
2023/05/10 08:48:31;;;;;;;5.43;4.90;;;;;;;;;;6156310;23;20092;-82
2023/05/10 08:50:59;;;;;;;6.68;4.78;;;;;;;;;;6156280;23;20041;-83
2023/05/10 08:53:27;;;;;;;8.48;5.40;;;;;;;;;;6156514;23;20020;-82
2023/05/10 08:55:53;;;;;;;5.78;5.18;;;;;;;;;;6156280;23;20027;-82
2023/05/10 08:58:20;;;;;;;8.32;5.72;;;;;;;;;;6156830;23;20013;-82
2023/05/10 09:00:46;;;;;;;6.45;5.13;;;;;;;;;;6132370;23;20023;-82
2023/05/10 09:03:12;;;;;;;6.60;5.70;;;;;;;;;;6131776;23;20031;-81
2023/05/10 09:05:38;;;;;;;7.47;5.80;;;;;;;;;;6156804;23;20013;-82
2023/05/10 09:08:05;;;;;;;5.93;5.32;;;;;;;;;;6157128;23;20024;-81
2023/05/10 09:10:31;;;;;;;6.78;4.63;;;;;;;;;;6132315;23;20116;-81
2023/05/10 09:12:57;;;;;;;6.63;5.78;;;;;;;;;;6132484;23;20108;-81
2023/05/10 09:15:23;;;;;;;7.40;5.65;;;;;;;;;;6132010;23;20048;-82
2023/05/10 09:17:50;;;;;;;10.25;7.03;;;;;;;;;;6131750;23;20071;-81
2023/05/10 09:20:17;;;;;;;7.85;5.68;;;;;;;;;;6157055;23;20013;-81
2023/05/10 09:22:44;;;;;;;8.57;5.53;;;;;;;;;;6132172;23;20013;-82
2023/05/10 09:25:12;;;;;;;6.88;6.18;;;;;;;;;;6156898;23;20013;-82
2023/05/10 09:27:41;;;;;;;10.02;6.40;;;;;;;;;;6156698;23;20043;-81
2023/05/10 09:30:08;;;;;;;7.13;6.10;;;;;;;;;;6182940;23;20071;-82
2023/05/10 09:32:41;;;;;;;7.20;5.72;;;;;;;;;;6156583;23;20017;-81
2023/05/10 09:35:08;;;;;;;5.97;5.38;;;;;;;;;;6131960;23;20017;-82
2023/05/10 09:37:35;;;;;;;7.65;6.00;;;;;;;;;;6183305;23;20013;-81
2023/05/10 09:40:04;;;;;;;6.25;5.43;;;;;;;;;;6131932;23;20094;-81
2023/05/10 09:42:30;;;;;;;6.88;6.05;;;;;;;;;;6156694;23;20077;-81
2023/05/10 09:45:00;;;;;;;7.50;5.93;;;;;;;;;;6156308;23;20017;-82
2023/05/10 09:47:26;;;;;;;7.72;5.65;;;;;;;;;;6183240;23;20313;-81
2023/05/10 09:49:57;;;;;;;9.30;6.22;;;;;;;;;;6156512;23;20013;-82
2023/05/10 09:52:23;;;;;;;7.80;6.55;;;;;;;;;;6156319;23;20044;-81
2023/05/10 09:54:53;;;;;;;7.72;6.03;;;;;;;;;;6183018;23;20097;-82
2023/05/10 09:57:24;;;;;;;7.15;6.45;;;;;;;;;;6156366;23;20044;-82
2023/05/10 09:59:50;;;;;;;7.55;6.05;;;;;;;;;;6131357;23;20024;-81
2023/05/10 10:02:16;;;;;;;7.15;6.45;;;;;;;;;;6131903;23;20009;-82
2023/05/10 10:04:43;;;;;;;9.10;6.97;;;;;;;;;;6156326;23;20079;-81
2023/05/10 10:07:09;;;;;;;9.43;7.30;;;;;;;;;;6182902;23;20079;-81
2023/05/10 10:09:35;;;;;;;8.02;6.50;;;;;;;;;;6156280;23;20040;-81
2023/05/10 10:12:04;;;;;;;9.45;6.22;;;;;;;;;;6156691;23;20021;-82
2023/05/10 10:14:30;;;;;;;7.72;6.03;;;;;;;;;;6131099;23;20498;-81
2023/05/10 10:16:56;;;;;;;8.50;6.70;;;;;;;;;;6156350;23;20452;-81
2023/05/10 10:19:22;;;;;;;9.80;6.93;;;;;;;;;;6157167;23;20028;-81
2023/05/10 10:21:49;;;;;;;8.65;6.47;;;;;;;;;;6134007;23;20013;-82
2023/05/10 10:24:15;;;;;;;9.77;7.13;;;;;;;;;;6158140;23;20013;-81
2023/05/10 10:26:43;;;;;;;7.22;6.18;;;;;;;;;;6184873;23;20020;-78
2023/05/10 10:29:09;;;;;;;8.18;6.13;;;;;;;;;;6184537;23;20017;-79
2023/05/10 10:31:35;;;;;;;9.68;6.10;;;;;;;;;;6184705;23;20009;-81
2023/05/10 10:34:04;;;;;;;8.98;5.97;;;;;;;;;;6133727;23;20058;-81
2023/05/10 10:36:31;;;;;;;7.93;6.00;;;;;;;;;;6133470;23;20017;-82
2023/05/10 10:39:01;;;;;;;9.25;6.20;;;;;;;;;;6158082;23;20020;-81
2023/05/10 10:41:28;;;;;;;8.85;6.63;;;;;;;;;;6158127;23;20013;-81
2023/05/10 10:44:13;;;;;;;8.30;6.45;;;;;;;;;;6157628;23;20063;-82
2023/05/10 10:46:59;;;;;;;6.90;5.90;;;;;;;;;;6157925;23;20071;-82
2023/05/10 10:49:25;;;;;;;8.80;6.75;;;;;;;;;;6133574;23;20017;-82
2023/05/10 10:52:10;;;;;;;7.22;5.80;;;;;;;;;;6158007;23;20020;-82
2023/05/10 10:54:36;;;;;;;10.02;6.90;;;;;;;;;;6157883;23;20017;-82
2023/05/10 10:57:13;;;;;;;9.77;6.40;;;;;;;;;;6133429;23;20456;-82
2023/05/10 10:59:46;;;;;;;8.27;6.68;;;;;;;;;;6158671;23;20092;-82
2023/05/10 11:02:30;;;;;;;8.35;6.50;;;;;;;;;;6133607;23;20023;-82
2023/05/10 11:04:56;;;;;;;8.55;6.22;;;;;;;;;;6133092;23;20024;-82
2023/05/10 11:07:23;;;;;;;9.00;5.88;;;;;;;;;;6158035;23;20399;-83
2023/05/10 11:09:49;;;;;;;8.85;5.88;;;;;;;;;;6184174;23;20017;-82
2023/05/10 11:12:15;;;;;;;8.65;5.90;;;;;;;;;;6184175;23;20009;-82
2023/05/10 11:14:41;;;;;;;5.95;4.97;;;;;;;;;;6157752;23;20432;-82
2023/05/10 11:17:23;;;;;;;8.07;5.43;;;;;;;;;;6133349;23;20028;-82
2023/05/10 11:20:24;;;;;;;8.43;5.45;;;;;;;;;;6184763;23;20041;-82
2023/05/10 11:22:51;;;;;;;8.02;5.70;;;;;;;;;;6102466;23;20458;-82
2023/05/10 11:25:17;;;;;;;7.18;5.70;;;;;;;;;;6183779;23;20020;-82
2023/05/10 11:27:44;;;;;;;8.38;5.88;;;;;;;;;;6156564;23;20013;-83
2023/05/10 11:30:11;;;;;;;8.15;5.43;;;;;;;;;;6157524;23;20013;-82
2023/05/10 11:32:38;;;;;;;6.95;4.78;;;;;;;;;;6157003;23;20051;-83
2023/05/10 11:35:11;;;;;;;6.63;5.10;;;;;;;;;;6157462;23;20088;-82
2023/05/10 11:37:39;;;;;;;7.80;5.57;;;;;;;;;;6157225;23;20012;-82
2023/05/10 11:40:05;;;;;;;9.45;5.82;;;;;;;;;;6157353;23;20093;-82
2023/05/10 11:42:31;;;;;;;6.57;5.05;;;;;;;;;;6156573;23;20333;-83
2023/05/10 11:44:57;;;;;;;6.93;5.80;;;;;;;;;;6157427;23;20020;-83
2023/05/10 11:47:23;;;;;;;10.32;5.82;;;;;;;;;;6132239;23;20017;-83
2023/05/10 11:49:50;;;;;;;9.10;5.85;;;;;;;;;;6183966;23;20063;-83
2023/05/10 11:52:16;;;;;;;8.07;5.70;;;;;;;;;;6156804;23;20080;-82
2023/05/10 11:54:46;;;;;;;7.28;5.68;;;;;;;;;;6132245;23;20047;-83
2023/05/10 11:57:12;;;;;;;7.35;5.60;;;;;;;;;;6131766;23;20055;-82
2023/05/10 11:59:38;;;;;;;9.90;6.30;;;;;;;;;;6183601;23;20313;-82
2023/05/10 12:02:04;;;;;;;9.75;5.90;;;;;;;;;;6157202;23;20445;-82
2023/05/10 12:04:31;;;;;;;12.25;6.10;;;;;;;;;;6132569;23;20140;-82
2023/05/10 12:06:57;;;;;;;9.10;6.05;;;;;;;;;;6132700;23;20039;-82
2023/05/10 12:09:23;;;;;;;9.30;6.18;;;;;;;;;;6157711;23;20019;-82
2023/05/10 12:11:49;;;;;;;6.68;5.90;;;;;;;;;;6157116;23;20040;-82
2023/05/10 12:14:16;;;;;;;8.40;6.55;;;;;;;;;;6133345;23;20486;-82
2023/05/10 12:16:43;;;;;;;10.32;6.18;;;;;;;;;;6157896;23;20021;-82
2023/05/10 12:19:09;;;;;;;7.72;6.43;;;;;;;;;;6132636;23;20019;-82
2023/05/10 12:21:35;;;;;;;11.35;7.95;;;;;;;;;;6157210;23;20013;-82
2023/05/10 12:24:02;;;;;;;10.05;6.40;;;;;;;;;;6157287;23;20027;-82
2023/05/10 12:26:29;;;;;;;8.02;6.82;;;;;;;;;;6156678;23;20013;-82
2023/05/10 12:28:55;;;;;;;8.75;6.72;;;;;;;;;;6157639;23;20099;-82
2023/05/10 12:31:21;;;;;;;8.23;6.75;;;;;;;;;;6132614;23;20345;-82
2023/05/10 12:33:49;;;;;;;8.30;7.05;;;;;;;;;;6132727;23;20111;-82
2023/05/10 12:36:15;;;;;;;9.63;6.45;;;;;;;;;;6132428;23;20048;-83
2023/05/10 12:38:49;;;;;;;9.90;7.68;;;;;;;;;;6131866;23;20044;-82
2023/05/10 12:41:16;;;;;;;11.25;7.55;;;;;;;;;;6132317;23;20092;-82
2023/05/10 12:43:42;;;;;;;10.85;7.85;;;;;;;;;;6157002;23;20021;-83
2023/05/10 12:46:08;;;;;;;9.98;6.95;;;;;;;;;;6132690;23;20017;-82
2023/05/10 12:48:35;;;;;;;9.90;7.03;;;;;;;;;;6132623;23;20013;-82
2023/05/10 12:51:02;;;;;;;12.02;8.05;;;;;;;;;;6183430;23;20017;-83
2023/05/10 12:53:28;;;;;;;9.90;7.60;;;;;;;;;;6131981;23;20020;-82
2023/05/10 12:55:54;;;;;;;11.07;7.03;;;;;;;;;;6156832;23;20020;-82
2023/05/10 12:58:20;;;;;;;10.05;7.32;;;;;;;;;;6183710;23;20017;-83
2023/05/10 13:00:46;;;;;;;10.52;7.65;;;;;;;;;;6132524;23;20013;-83
2023/05/10 13:03:12;;;;;;;10.20;7.35;;;;;;;;;;6157057;23;20021;-82
2023/05/10 13:05:39;;;;;;;8.93;7.80;;;;;;;;;;6157184;23;20389;-83
2023/05/10 13:08:05;;;;;;;10.88;7.72;;;;;;;;;;6156378;23;20017;-82
2023/05/10 13:10:31;;;;;;;10.65;7.65;;;;;;;;;;6157288;23;20009;-83
2023/05/10 13:12:58;;;;;;;10.85;7.55;;;;;;;;;;6132781;23;20040;-83
2023/05/10 13:15:24;;;;;;;10.27;7.72;;;;;;;;;;6157025;23;20289;-82
2023/05/10 13:17:51;;;;;;;8.93;7.32;;;;;;;;;;6183560;23;20015;-82
2023/05/10 13:20:17;;;;;;;9.27;6.85;;;;;;;;;;6132463;23;20009;-82
2023/05/10 13:22:44;;;;;;;9.40;7.32;;;;;;;;;;6156821;23;20013;-82
2023/05/10 13:25:10;;;;;;;10.73;6.78;;;;;;;;;;6156867;23;20017;-82
2023/05/10 13:27:36;;;;;;;8.95;6.85;;;;;;;;;;6132351;23;20089;-83
2023/05/10 13:30:03;;;;;;;10.27;7.60;;;;;;;;;;6132891;23;20393;-82
2023/05/10 13:32:29;;;;;;;9.05;6.78;;;;;;;;;;6156956;23;20397;-83
2023/05/10 13:34:55;;;;;;;9.40;6.63;;;;;;;;;;6132191;23;20063;-82
2023/05/10 13:37:21;;;;;;;10.18;7.45;;;;;;;;;;6131803;23;20013;-82
2023/05/10 13:39:48;;;;;;;9.70;6.53;;;;;;;;;;6157048;23;20024;-83
2023/05/10 13:42:18;;;;;;;10.85;7.30;;;;;;;;;;6133143;23;20017;-82
2023/05/10 13:44:44;;;;;;;12.00;7.78;;;;;;;;;;6157081;23;20032;-83
2023/05/10 13:47:11;;;;;;;8.95;7.20;;;;;;;;;;6132308;23;20064;-83
2023/05/10 13:49:37;;;;;;;10.45;7.18;;;;;;;;;;6131900;23;20433;-83
2023/05/10 13:52:06;;;;;;;12.75;7.18;;;;;;;;;;6182127;23;20062;-83
2023/05/10 13:54:32;;;;;;;9.65;6.45;;;;;;;;;;6130861;23;20059;-83
2023/05/10 13:56:58;;;;;;;9.00;6.38;;;;;;;;;;6182747;23;20258;-83
2023/05/10 13:59:24;;;;;;;8.88;6.80;;;;;;;;;;6131378;23;20093;-83
2023/05/10 14:01:51;;;;;;;10.65;6.43;;;;;;;;;;6182597;23;20020;-82
2023/05/10 14:04:17;;;;;;;8.70;6.13;;;;;;;;;;6182280;23;20508;-83
2023/05/10 14:06:43;;;;;;;7.88;6.13;;;;;;;;;;6155581;23;20051;-83
2023/05/10 14:09:09;;;;;;;8.82;6.15;;;;;;;;;;6131188;23;20063;-83
2023/05/10 14:11:35;;;;;;;8.07;5.97;;;;;;;;;;6182679;23;20016;-83
2023/05/10 14:14:01;;;;;;;8.35;6.45;;;;;;;;;;6131487;23;20009;-83
2023/05/10 14:16:27;;;;;;;8.70;6.20;;;;;;;;;;6130953;23;20024;-83
2023/05/10 14:18:53;;;;;;;9.25;5.90;;;;;;;;;;6131472;23;20105;-83
2023/05/10 14:21:19;;;;;;;8.55;6.22;;;;;;;;;;6155344;23;20045;-82
2023/05/10 14:23:45;;;;;;;11.15;6.60;;;;;;;;;;6182835;23;20305;-83
2023/05/10 14:26:11;;;;;;;7.40;6.40;;;;;;;;;;6131216;23;20020;-83
2023/05/10 14:28:37;;;;;;;10.75;6.50;;;;;;;;;;6156079;23;20063;-83
2023/05/10 14:31:05;;;;;;;9.40;6.93;;;;;;;;;;6131452;23;20344;-83